sensor_id;sensor_type;location;lat;lon;timestamp;pressure;altitude;pressure_sealevel;temperature;humidity
39954;BME280;25631;51.516;-0.470;2024-01-27T00:01:45;103242.28;;;3.48;35.38
39954;BME280;25631;51.516;-0.470;2024-01-27T00:04:21;103239.57;;;3.81;35.47
39954;BME280;25631;51.516;-0.470;2024-01-27T00:06:58;103234.21;;;3.67;35.51
39954;BME280;25631;51.516;-0.470;2024-01-27T00:09:34;103225.55;;;3.69;35.58
39954;BME280;25631;51.516;-0.470;2024-01-27T00:12:11;103227.39;;;3.70;35.61
39954;BME280;25631;51.516;-0.470;2024-01-27T00:14:47;103232.27;;;3.70;35.74
39954;BME280;25631;51.516;-0.470;2024-01-27T00:17:23;103230.66;;;3.49;35.84
39954;BME280;25631;51.516;-0.470;2024-01-27T00:20:00;103233.60;;;3.39;35.89
39954;BME280;25631;51.516;-0.470;2024-01-27T00:22:36;103233.06;;;3.62;35.89
39954;BME280;25631;51.516;-0.470;2024-01-27T00:25:12;103231.44;;;3.73;35.87
39954;BME280;25631;51.516;-0.470;2024-01-27T00:27:49;103231.79;;;3.72;35.82
39954;BME280;25631;51.516;-0.470;2024-01-27T00:30:25;103232.15;;;3.53;35.78
39954;BME280;25631;51.516;-0.470;2024-01-27T00:33:02;103233.63;;;3.72;35.73
39954;BME280;25631;51.516;-0.470;2024-01-27T00:35:38;103229.14;;;3.68;35.63
39954;BME280;25631;51.516;-0.470;2024-01-27T00:38:15;103222.48;;;3.67;35.62
39954;BME280;25631;51.516;-0.470;2024-01-27T00:40:52;103218.11;;;3.84;35.58
39954;BME280;25631;51.516;-0.470;2024-01-27T00:43:29;103220.88;;;3.82;35.55
39954;BME280;25631;51.516;-0.470;2024-01-27T00:46:05;103221.67;;;3.64;35.56
39954;BME280;25631;51.516;-0.470;2024-01-27T00:48:42;103226.29;;;3.57;35.61
39954;BME280;25631;51.516;-0.470;2024-01-27T00:51:18;103223.90;;;3.63;35.63
39954;BME280;25631;51.516;-0.470;2024-01-27T00:53:54;103227.28;;;3.44;35.67
39954;BME280;25631;51.516;-0.470;2024-01-27T00:56:31;103224.75;;;3.56;35.69
39954;BME280;25631;51.516;-0.470;2024-01-27T00:59:08;103220.61;;;3.48;35.69
39954;BME280;25631;51.516;-0.470;2024-01-27T01:01:44;103215.95;;;3.42;35.70
39954;BME280;25631;51.516;-0.470;2024-01-27T01:04:21;103217.88;;;3.41;35.72
39954;BME280;25631;51.516;-0.470;2024-01-27T01:06:58;103218.58;;;3.66;35.79
39954;BME280;25631;51.516;-0.470;2024-01-27T01:09:34;103219.66;;;3.53;35.79
39954;BME280;25631;51.516;-0.470;2024-01-27T01:12:11;103221.64;;;3.65;35.76
39954;BME280;25631;51.516;-0.470;2024-01-27T01:14:47;103221.47;;;3.69;35.78
39954;BME280;25631;51.516;-0.470;2024-01-27T01:17:24;103217.21;;;3.52;35.66
39954;BME280;25631;51.516;-0.470;2024-01-27T01:20:00;103216.87;;;3.30;35.50
39954;BME280;25631;51.516;-0.470;2024-01-27T01:22:37;103206.90;;;3.10;35.40
39954;BME280;25631;51.516;-0.470;2024-01-27T01:25:13;103197.42;;;3.00;35.45
39954;BME280;25631;51.516;-0.470;2024-01-27T01:27:50;103193.18;;;3.32;35.49
39954;BME280;25631;51.516;-0.470;2024-01-27T01:30:26;103197.60;;;3.53;35.58
39954;BME280;25631;51.516;-0.470;2024-01-27T01:33:03;103204.44;;;3.26;35.57
39954;BME280;25631;51.516;-0.470;2024-01-27T01:35:39;103202.56;;;3.33;35.52
39954;BME280;25631;51.516;-0.470;2024-01-27T01:38:16;103196.98;;;3.43;35.56
39954;BME280;25631;51.516;-0.470;2024-01-27T01:40:52;103198.07;;;3.37;35.51
39954;BME280;25631;51.516;-0.470;2024-01-27T01:43:28;103194.44;;;3.20;35.39
39954;BME280;25631;51.516;-0.470;2024-01-27T01:46:05;103185.90;;;3.07;35.37
39954;BME280;25631;51.516;-0.470;2024-01-27T01:48:42;103184.91;;;3.42;35.54
39954;BME280;25631;51.516;-0.470;2024-01-27T01:51:18;103187.16;;;3.11;35.54
39954;BME280;25631;51.516;-0.470;2024-01-27T01:53:57;103191.72;;;3.23;35.46
39954;BME280;25631;51.516;-0.470;2024-01-27T01:56:34;103191.83;;;3.34;35.48
39954;BME280;25631;51.516;-0.470;2024-01-27T01:59:12;103192.38;;;3.11;35.54
39954;BME280;25631;51.516;-0.470;2024-01-27T02:01:48;103191.57;;;3.13;35.65
39954;BME280;25631;51.516;-0.470;2024-01-27T02:04:25;103190.55;;;2.95;35.68
39954;BME280;25631;51.516;-0.470;2024-01-27T02:07:01;103188.00;;;3.10;35.72
39954;BME280;25631;51.516;-0.470;2024-01-27T02:09:38;103191.82;;;3.24;35.70
39954;BME280;25631;51.516;-0.470;2024-01-27T02:12:14;103200.09;;;3.20;35.73
39954;BME280;25631;51.516;-0.470;2024-01-27T02:14:51;103199.33;;;3.10;35.65
39954;BME280;25631;51.516;-0.470;2024-01-27T02:17:27;103197.01;;;2.91;35.51
39954;BME280;25631;51.516;-0.470;2024-01-27T02:20:04;103204.21;;;3.06;35.49
39954;BME280;25631;51.516;-0.470;2024-01-27T02:22:41;103206.43;;;3.11;35.49
39954;BME280;25631;51.516;-0.470;2024-01-27T02:25:17;103201.61;;;3.15;35.49
39954;BME280;25631;51.516;-0.470;2024-01-27T02:27:54;103197.12;;;3.29;35.52
39954;BME280;25631;51.516;-0.470;2024-01-27T02:30:30;103190.48;;;3.00;35.50
39954;BME280;25631;51.516;-0.470;2024-01-27T02:33:07;103189.76;;;3.18;35.51
39954;BME280;25631;51.516;-0.470;2024-01-27T02:35:43;103183.51;;;2.95;35.48
39954;BME280;25631;51.516;-0.470;2024-01-27T02:38:20;103179.49;;;3.04;35.39
39954;BME280;25631;51.516;-0.470;2024-01-27T02:40:56;103186.66;;;3.00;35.46
39954;BME280;25631;51.516;-0.470;2024-01-27T02:43:32;103195.31;;;2.86;35.48
39954;BME280;25631;51.516;-0.470;2024-01-27T02:46:11;103205.34;;;2.75;35.38
39954;BME280;25631;51.516;-0.470;2024-01-27T02:48:48;103204.52;;;2.62;35.43
39954;BME280;25631;51.516;-0.470;2024-01-27T02:51:24;103202.23;;;2.78;35.36
39954;BME280;25631;51.516;-0.470;2024-01-27T02:54:01;103194.69;;;2.67;35.47
39954;BME280;25631;51.516;-0.470;2024-01-27T02:56:37;103179.92;;;2.85;35.62
39954;BME280;25631;51.516;-0.470;2024-01-27T02:59:14;103185.57;;;2.70;35.68
39954;BME280;25631;51.516;-0.470;2024-01-27T03:01:50;103198.05;;;2.56;35.44
39954;BME280;25631;51.516;-0.470;2024-01-27T03:04:26;103195.38;;;2.58;35.41
39954;BME280;25631;51.516;-0.470;2024-01-27T03:07:03;103189.33;;;2.54;35.46
39954;BME280;25631;51.516;-0.470;2024-01-27T03:09:39;103177.40;;;2.27;35.53
39954;BME280;25631;51.516;-0.470;2024-01-27T03:12:16;103172.48;;;2.37;35.61
39954;BME280;25631;51.516;-0.470;2024-01-27T03:14:52;103179.15;;;2.37;35.72
39954;BME280;25631;51.516;-0.470;2024-01-27T03:17:29;103183.01;;;2.58;35.69
39954;BME280;25631;51.516;-0.470;2024-01-27T03:20:07;103174.47;;;2.18;35.77
39954;BME280;25631;51.516;-0.470;2024-01-27T03:22:44;103166.53;;;2.26;35.81
39954;BME280;25631;51.516;-0.470;2024-01-27T03:25:20;103184.12;;;2.19;35.84
39954;BME280;25631;51.516;-0.470;2024-01-27T03:27:57;103195.12;;;2.12;35.85
39954;BME280;25631;51.516;-0.470;2024-01-27T03:30:33;103203.04;;;2.22;35.91
39954;BME280;25631;51.516;-0.470;2024-01-27T03:33:10;103204.74;;;2.15;35.90
39954;BME280;25631;51.516;-0.470;2024-01-27T03:35:46;103197.88;;;2.27;35.79
39954;BME280;25631;51.516;-0.470;2024-01-27T03:38:23;103201.85;;;2.46;35.72
39954;BME280;25631;51.516;-0.470;2024-01-27T03:40:59;103218.00;;;2.12;35.81
39954;BME280;25631;51.516;-0.470;2024-01-27T03:43:36;103220.41;;;2.14;35.80
39954;BME280;25631;51.516;-0.470;2024-01-27T03:46:12;103217.15;;;1.98;35.84
39954;BME280;25631;51.516;-0.470;2024-01-27T03:48:48;103215.26;;;2.17;35.86
39954;BME280;25631;51.516;-0.470;2024-01-27T03:51:25;103202.44;;;2.09;35.81
39954;BME280;25631;51.516;-0.470;2024-01-27T03:54:01;103200.62;;;1.65;35.88
39954;BME280;25631;51.516;-0.470;2024-01-27T03:56:37;103198.45;;;1.88;35.98
39954;BME280;25631;51.516;-0.470;2024-01-27T03:59:15;103197.93;;;2.41;36.07
39954;BME280;25631;51.516;-0.470;2024-01-27T04:01:52;103196.14;;;1.93;36.07
39954;BME280;25631;51.516;-0.470;2024-01-27T04:04:28;103192.54;;;1.96;36.03
39954;BME280;25631;51.516;-0.470;2024-01-27T04:07:05;103189.37;;;2.00;36.06
39954;BME280;25631;51.516;-0.470;2024-01-27T04:09:42;103191.16;;;2.38;36.10
39954;BME280;25631;51.516;-0.470;2024-01-27T04:12:18;103198.59;;;1.96;36.02
39954;BME280;25631;51.516;-0.470;2024-01-27T04:14:56;103207.28;;;2.06;36.00
39954;BME280;25631;51.516;-0.470;2024-01-27T04:17:32;103191.90;;;1.66;36.03
39954;BME280;25631;51.516;-0.470;2024-01-27T04:20:10;103189.68;;;1.73;36.04
39954;BME280;25631;51.516;-0.470;2024-01-27T04:22:47;103189.39;;;2.04;36.04
39954;BME280;25631;51.516;-0.470;2024-01-27T04:25:23;103201.78;;;1.71;36.10
39954;BME280;25631;51.516;-0.470;2024-01-27T04:28:00;103197.45;;;1.92;36.19
39954;BME280;25631;51.516;-0.470;2024-01-27T04:30:36;103191.23;;;1.95;36.19
39954;BME280;25631;51.516;-0.470;2024-01-27T04:33:13;103182.23;;;1.88;36.12
39954;BME280;25631;51.516;-0.470;2024-01-27T04:35:49;103192.39;;;2.29;36.02
39954;BME280;25631;51.516;-0.470;2024-01-27T04:38:25;103191.30;;;2.11;35.92
39954;BME280;25631;51.516;-0.470;2024-01-27T04:41:02;103185.12;;;2.08;35.99
39954;BME280;25631;51.516;-0.470;2024-01-27T04:43:38;103175.44;;;2.32;36.02
39954;BME280;25631;51.516;-0.470;2024-01-27T04:46:15;103175.99;;;2.00;36.02
39954;BME280;25631;51.516;-0.470;2024-01-27T04:48:51;103177.42;;;2.04;35.96
39954;BME280;25631;51.516;-0.470;2024-01-27T04:51:28;103179.99;;;1.69;36.00
39954;BME280;25631;51.516;-0.470;2024-01-27T04:54:04;103175.94;;;1.86;35.87
39954;BME280;25631;51.516;-0.470;2024-01-27T04:56:41;103174.38;;;1.72;35.93
39954;BME280;25631;51.516;-0.470;2024-01-27T04:59:17;103182.56;;;1.72;36.14
39954;BME280;25631;51.516;-0.470;2024-01-27T05:01:54;103186.22;;;1.78;36.15
39954;BME280;25631;51.516;-0.470;2024-01-27T05:04:30;103181.04;;;1.61;36.16
39954;BME280;25631;51.516;-0.470;2024-01-27T05:07:06;103178.26;;;1.85;36.13
39954;BME280;25631;51.516;-0.470;2024-01-27T05:09:43;103171.56;;;1.49;36.21
39954;BME280;25631;51.516;-0.470;2024-01-27T05:12:19;103174.86;;;1.64;36.18
39954;BME280;25631;51.516;-0.470;2024-01-27T05:14:56;103172.20;;;1.73;36.27
39954;BME280;25631;51.516;-0.470;2024-01-27T05:17:32;103158.52;;;1.41;36.30
39954;BME280;25631;51.516;-0.470;2024-01-27T05:20:09;103150.79;;;1.47;36.31
39954;BME280;25631;51.516;-0.470;2024-01-27T05:22:46;103147.27;;;1.69;36.28
39954;BME280;25631;51.516;-0.470;2024-01-27T05:25:22;103138.13;;;1.68;36.28
39954;BME280;25631;51.516;-0.470;2024-01-27T05:27:59;103140.32;;;1.63;36.27
39954;BME280;25631;51.516;-0.470;2024-01-27T05:30:35;103136.18;;;1.72;36.27
39954;BME280;25631;51.516;-0.470;2024-01-27T05:33:12;103128.68;;;1.50;36.16
39954;BME280;25631;51.516;-0.470;2024-01-27T05:35:48;103126.39;;;1.56;36.06
39954;BME280;25631;51.516;-0.470;2024-01-27T05:38:25;103121.69;;;1.73;36.22
39954;BME280;25631;51.516;-0.470;2024-01-27T05:41:02;103114.97;;;1.46;36.24
39954;BME280;25631;51.516;-0.470;2024-01-27T05:43:38;103111.83;;;1.65;36.23
39954;BME280;25631;51.516;-0.470;2024-01-27T05:46:15;103119.34;;;1.39;36.28
39954;BME280;25631;51.516;-0.470;2024-01-27T05:48:52;103122.23;;;1.69;36.28
39954;BME280;25631;51.516;-0.470;2024-01-27T05:51:28;103124.88;;;1.61;36.27
39954;BME280;25631;51.516;-0.470;2024-01-27T05:54:05;103125.77;;;1.64;36.28
39954;BME280;25631;51.516;-0.470;2024-01-27T05:56:41;103125.91;;;1.55;36.32
39954;BME280;25631;51.516;-0.470;2024-01-27T05:59:18;103119.61;;;1.67;36.36
39954;BME280;25631;51.516;-0.470;2024-01-27T06:01:54;103113.54;;;1.72;36.31
39954;BME280;25631;51.516;-0.470;2024-01-27T06:04:30;103107.93;;;1.44;36.28
39954;BME280;25631;51.516;-0.470;2024-01-27T06:07:07;103113.53;;;1.80;36.25
39954;BME280;25631;51.516;-0.470;2024-01-27T06:09:44;103126.41;;;1.73;36.22
39954;BME280;25631;51.516;-0.470;2024-01-27T06:12:20;103129.37;;;1.57;36.15
39954;BME280;25631;51.516;-0.470;2024-01-27T06:14:57;103127.26;;;1.53;36.13
39954;BME280;25631;51.516;-0.470;2024-01-27T06:17:33;103141.86;;;1.33;36.18
39954;BME280;25631;51.516;-0.470;2024-01-27T06:20:10;103155.53;;;1.45;36.15
39954;BME280;25631;51.516;-0.470;2024-01-27T06:22:47;103152.57;;;1.32;36.16
39954;BME280;25631;51.516;-0.470;2024-01-27T06:25:24;103150.90;;;1.20;36.30
39954;BME280;25631;51.516;-0.470;2024-01-27T06:28:00;103163.40;;;1.40;36.37
39954;BME280;25631;51.516;-0.470;2024-01-27T06:30:37;103176.85;;;1.54;36.42
39954;BME280;25631;51.516;-0.470;2024-01-27T06:33:13;103171.45;;;1.38;36.50
39954;BME280;25631;51.516;-0.470;2024-01-27T06:35:50;103167.42;;;1.31;36.49
39954;BME280;25631;51.516;-0.470;2024-01-27T06:38:26;103170.45;;;1.17;36.44
39954;BME280;25631;51.516;-0.470;2024-01-27T06:41:03;103167.52;;;1.30;36.45
39954;BME280;25631;51.516;-0.470;2024-01-27T06:43:40;103167.19;;;1.48;36.37
39954;BME280;25631;51.516;-0.470;2024-01-27T06:46:16;103168.62;;;1.68;36.36
39954;BME280;25631;51.516;-0.470;2024-01-27T06:48:53;103172.89;;;1.46;36.33
39954;BME280;25631;51.516;-0.470;2024-01-27T06:51:29;103169.95;;;1.50;36.24
39954;BME280;25631;51.516;-0.470;2024-01-27T06:54:06;103161.53;;;1.23;36.29
39954;BME280;25631;51.516;-0.470;2024-01-27T06:56:42;103155.48;;;1.26;36.22
39954;BME280;25631;51.516;-0.470;2024-01-27T06:59:19;103148.08;;;1.21;36.14
39954;BME280;25631;51.516;-0.470;2024-01-27T07:01:55;103152.81;;;1.16;36.21
39954;BME280;25631;51.516;-0.470;2024-01-27T07:04:32;103145.26;;;1.15;36.13
39954;BME280;25631;51.516;-0.470;2024-01-27T07:07:08;103131.48;;;1.04;36.23
39954;BME280;25631;51.516;-0.470;2024-01-27T07:09:45;103127.32;;;1.36;36.37
39954;BME280;25631;51.516;-0.470;2024-01-27T07:12:21;103129.35;;;1.14;36.47
39954;BME280;25631;51.516;-0.470;2024-01-27T07:14:58;103131.69;;;1.04;36.56
39954;BME280;25631;51.516;-0.470;2024-01-27T07:17:35;103134.51;;;1.05;36.64
39954;BME280;25631;51.516;-0.470;2024-01-27T07:20:12;103142.37;;;1.14;36.66
39954;BME280;25631;51.516;-0.470;2024-01-27T07:22:48;103148.45;;;1.30;36.65
39954;BME280;25631;51.516;-0.470;2024-01-27T07:25:25;103153.38;;;1.22;36.69
39954;BME280;25631;51.516;-0.470;2024-01-27T07:28:02;103148.39;;;1.14;36.60
39954;BME280;25631;51.516;-0.470;2024-01-27T07:30:38;103150.11;;;1.20;36.62
39954;BME280;25631;51.516;-0.470;2024-01-27T07:33:14;103161.92;;;1.16;36.46
39954;BME280;25631;51.516;-0.470;2024-01-27T07:35:51;103180.25;;;1.17;36.40
39954;BME280;25631;51.516;-0.470;2024-01-27T07:38:27;103168.85;;;1.38;36.40
39954;BME280;25631;51.516;-0.470;2024-01-27T07:41:04;103165.80;;;1.34;36.53
39954;BME280;25631;51.516;-0.470;2024-01-27T07:43:40;103161.34;;;1.27;36.63
39954;BME280;25631;51.516;-0.470;2024-01-27T07:46:16;103163.25;;;0.96;36.62
39954;BME280;25631;51.516;-0.470;2024-01-27T07:48:53;103153.97;;;1.33;36.68
39954;BME280;25631;51.516;-0.470;2024-01-27T07:51:29;103143.72;;;1.23;36.62
39954;BME280;25631;51.516;-0.470;2024-01-27T07:54:06;103143.84;;;0.97;36.66
39954;BME280;25631;51.516;-0.470;2024-01-27T07:56:42;103140.72;;;1.04;36.74
39954;BME280;25631;51.516;-0.470;2024-01-27T07:59:18;103139.31;;;1.34;36.82
39954;BME280;25631;51.516;-0.470;2024-01-27T08:01:55;103147.50;;;0.90;36.88
39954;BME280;25631;51.516;-0.470;2024-01-27T08:04:31;103153.77;;;1.34;36.77
39954;BME280;25631;51.516;-0.470;2024-01-27T08:07:08;103160.88;;;1.20;36.74
39954;BME280;25631;51.516;-0.470;2024-01-27T08:09:44;103165.69;;;1.54;36.83
39954;BME280;25631;51.516;-0.470;2024-01-27T08:12:21;103172.63;;;1.48;36.93
39954;BME280;25631;51.516;-0.470;2024-01-27T08:14:57;103174.55;;;1.34;36.97
39954;BME280;25631;51.516;-0.470;2024-01-27T08:17:33;103173.28;;;1.39;36.98
39954;BME280;25631;51.516;-0.470;2024-01-27T08:20:11;103166.12;;;1.52;37.07
39954;BME280;25631;51.516;-0.470;2024-01-27T08:22:47;103163.38;;;1.55;37.10
39954;BME280;25631;51.516;-0.470;2024-01-27T08:25:24;103160.70;;;1.63;37.16
39954;BME280;25631;51.516;-0.470;2024-01-27T08:28:01;103157.86;;;1.91;37.20
39954;BME280;25631;51.516;-0.470;2024-01-27T08:30:37;103148.75;;;1.92;37.13
39954;BME280;25631;51.516;-0.470;2024-01-27T08:33:14;103144.79;;;1.88;37.08
39954;BME280;25631;51.516;-0.470;2024-01-27T08:35:52;103155.43;;;1.79;37.03
39954;BME280;25631;51.516;-0.470;2024-01-27T08:38:29;103154.35;;;1.96;37.04
39954;BME280;25631;51.516;-0.470;2024-01-27T08:41:05;103150.27;;;2.23;36.99
39954;BME280;25631;51.516;-0.470;2024-01-27T08:43:42;103155.32;;;1.74;37.00
39954;BME280;25631;51.516;-0.470;2024-01-27T08:46:18;103167.16;;;2.12;37.13
39954;BME280;25631;51.516;-0.470;2024-01-27T08:48:54;103166.50;;;2.20;37.22
39954;BME280;25631;51.516;-0.470;2024-01-27T08:51:41;103164.40;;;1.75;37.18
39954;BME280;25631;51.516;-0.470;2024-01-27T08:54:17;103153.41;;;2.11;37.13
39954;BME280;25631;51.516;-0.470;2024-01-27T08:56:54;103156.06;;;1.89;37.14
39954;BME280;25631;51.516;-0.470;2024-01-27T08:59:30;103153.37;;;2.07;37.15
39954;BME280;25631;51.516;-0.470;2024-01-27T09:02:07;103154.02;;;2.12;37.15
39954;BME280;25631;51.516;-0.470;2024-01-27T09:04:43;103153.00;;;2.17;37.12
39954;BME280;25631;51.516;-0.470;2024-01-27T09:07:19;103151.07;;;2.25;37.12
39954;BME280;25631;51.516;-0.470;2024-01-27T09:09:56;103153.38;;;2.31;37.20
39954;BME280;25631;51.516;-0.470;2024-01-27T09:12:33;103158.08;;;2.18;37.29
39954;BME280;25631;51.516;-0.470;2024-01-27T09:15:09;103159.43;;;1.82;37.31
39954;BME280;25631;51.516;-0.470;2024-01-27T09:17:46;103159.27;;;2.46;37.19
39954;BME280;25631;51.516;-0.470;2024-01-27T09:20:22;103161.39;;;2.77;37.22
39954;BME280;25631;51.516;-0.470;2024-01-27T09:22:59;103163.73;;;2.78;37.37
39954;BME280;25631;51.516;-0.470;2024-01-27T09:25:35;103160.91;;;3.10;37.50
39954;BME280;25631;51.516;-0.470;2024-01-27T09:28:12;103167.42;;;2.89;37.61
39954;BME280;25631;51.516;-0.470;2024-01-27T09:30:48;103165.76;;;3.00;37.67
39954;BME280;25631;51.516;-0.470;2024-01-27T09:33:25;103169.14;;;3.13;37.68
39954;BME280;25631;51.516;-0.470;2024-01-27T09:36:01;103177.90;;;3.19;37.73
39954;BME280;25631;51.516;-0.470;2024-01-27T09:38:38;103179.12;;;3.48;37.74
39954;BME280;25631;51.516;-0.470;2024-01-27T09:41:15;103180.64;;;3.51;37.82
39954;BME280;25631;51.516;-0.470;2024-01-27T09:43:52;103176.33;;;3.46;37.82
39954;BME280;25631;51.516;-0.470;2024-01-27T09:46:31;103174.91;;;3.45;37.81
39954;BME280;25631;51.516;-0.470;2024-01-27T09:49:09;103176.70;;;3.48;37.82
39954;BME280;25631;51.516;-0.470;2024-01-27T09:51:46;103176.75;;;3.64;37.83
39954;BME280;25631;51.516;-0.470;2024-01-27T09:54:23;103181.78;;;3.63;37.85
39954;BME280;25631;51.516;-0.470;2024-01-27T09:57:00;103184.31;;;3.65;37.92
39954;BME280;25631;51.516;-0.470;2024-01-27T09:59:37;103184.58;;;3.52;38.09
39954;BME280;25631;51.516;-0.470;2024-01-27T10:02:17;103180.92;;;3.65;38.23
39954;BME280;25631;51.516;-0.470;2024-01-27T10:04:54;103177.82;;;3.41;38.51
39954;BME280;25631;51.516;-0.470;2024-01-27T10:07:32;103182.60;;;3.46;38.56
39954;BME280;25631;51.516;-0.470;2024-01-27T10:10:08;103181.67;;;3.71;38.82
39954;BME280;25631;51.516;-0.470;2024-01-27T10:12:47;103184.64;;;3.51;39.16
39954;BME280;25631;51.516;-0.470;2024-01-27T10:15:24;103180.35;;;3.49;39.33
39954;BME280;25631;51.516;-0.470;2024-01-27T10:18:09;103181.21;;;3.57;39.65
39954;BME280;25631;51.516;-0.470;2024-01-27T10:20:45;103185.05;;;3.33;39.78
39954;BME280;25631;51.516;-0.470;2024-01-27T10:23:22;103184.70;;;3.74;39.86
39954;BME280;25631;51.516;-0.470;2024-01-27T10:25:58;103185.61;;;3.64;40.02
39954;BME280;25631;51.516;-0.470;2024-01-27T10:28:35;103189.69;;;3.70;40.08
39954;BME280;25631;51.516;-0.470;2024-01-27T10:31:12;103184.60;;;3.72;40.18
39954;BME280;25631;51.516;-0.470;2024-01-27T10:33:51;103182.97;;;3.99;40.19
39954;BME280;25631;51.516;-0.470;2024-01-27T10:36:38;103181.83;;;4.02;40.15
39954;BME280;25631;51.516;-0.470;2024-01-27T10:39:17;103180.29;;;4.14;40.25
39954;BME280;25631;51.516;-0.470;2024-01-27T10:41:53;103181.09;;;4.28;40.38
39954;BME280;25631;51.516;-0.470;2024-01-27T10:44:30;103182.14;;;4.37;40.46
39954;BME280;25631;51.516;-0.470;2024-01-27T10:47:09;103190.62;;;4.39;40.53
39954;BME280;25631;51.516;-0.470;2024-01-27T10:49:51;103193.86;;;4.42;40.54
39954;BME280;25631;51.516;-0.470;2024-01-27T10:52:31;103192.65;;;4.60;40.50
39954;BME280;25631;51.516;-0.470;2024-01-27T10:55:10;103196.23;;;4.43;40.64
39954;BME280;25631;51.516;-0.470;2024-01-27T10:57:47;103198.08;;;4.71;40.72
39954;BME280;25631;51.516;-0.470;2024-01-27T11:00:25;103191.77;;;4.29;40.68
39954;BME280;25631;51.516;-0.470;2024-01-27T11:03:03;103185.78;;;4.16;40.67
39954;BME280;25631;51.516;-0.470;2024-01-27T11:05:39;103179.70;;;4.69;40.57
39954;BME280;25631;51.516;-0.470;2024-01-27T11:08:16;103175.52;;;4.65;40.63
39954;BME280;25631;51.516;-0.470;2024-01-27T11:10:54;103176.33;;;4.43;40.66
39954;BME280;25631;51.516;-0.470;2024-01-27T11:13:32;103171.64;;;4.55;40.67
39954;BME280;25631;51.516;-0.470;2024-01-27T11:16:16;103162.86;;;4.61;40.56
39954;BME280;25631;51.516;-0.470;2024-01-27T11:18:52;103156.71;;;4.80;40.48
39954;BME280;25631;51.516;-0.470;2024-01-27T11:21:29;103156.41;;;4.68;40.26
39954;BME280;25631;51.516;-0.470;2024-01-27T11:24:15;103146.66;;;5.14;40.21
39954;BME280;25631;51.516;-0.470;2024-01-27T11:27:00;103143.94;;;4.85;40.25
39954;BME280;25631;51.516;-0.470;2024-01-27T11:29:47;103138.55;;;4.93;40.33
39954;BME280;25631;51.516;-0.470;2024-01-27T11:32:23;103140.32;;;5.13;40.33
39954;BME280;25631;51.516;-0.470;2024-01-27T11:35:03;103142.23;;;5.06;40.29
39954;BME280;25631;51.516;-0.470;2024-01-27T11:37:41;103145.42;;;5.16;40.27
39954;BME280;25631;51.516;-0.470;2024-01-27T11:40:17;103142.64;;;5.18;40.37
39954;BME280;25631;51.516;-0.470;2024-01-27T11:42:54;103143.47;;;5.15;40.31
39954;BME280;25631;51.516;-0.470;2024-01-27T11:45:31;103139.25;;;5.25;40.23
39954;BME280;25631;51.516;-0.470;2024-01-27T11:48:08;103137.78;;;5.24;40.17
39954;BME280;25631;51.516;-0.470;2024-01-27T11:50:44;103129.78;;;5.62;40.12
39954;BME280;25631;51.516;-0.470;2024-01-27T11:53:21;103120.94;;;5.66;40.17
39954;BME280;25631;51.516;-0.470;2024-01-27T11:55:59;103123.91;;;5.63;40.08
39954;BME280;25631;51.516;-0.470;2024-01-27T11:58:36;103120.98;;;5.79;39.93
39954;BME280;25631;51.516;-0.470;2024-01-27T12:01:12;103106.83;;;5.65;39.90
39954;BME280;25631;51.516;-0.470;2024-01-27T12:03:49;103100.90;;;5.87;39.82
39954;BME280;25631;51.516;-0.470;2024-01-27T12:06:25;103098.09;;;5.61;39.68
39954;BME280;25631;51.516;-0.470;2024-01-27T12:09:02;103100.51;;;6.12;39.52
39954;BME280;25631;51.516;-0.470;2024-01-27T12:11:39;103103.09;;;6.07;39.44
39954;BME280;25631;51.516;-0.470;2024-01-27T12:14:17;103102.85;;;5.65;39.58
39954;BME280;25631;51.516;-0.470;2024-01-27T12:16:53;103101.69;;;5.90;39.54
39954;BME280;25631;51.516;-0.470;2024-01-27T12:19:30;103094.23;;;5.75;39.45
39954;BME280;25631;51.516;-0.470;2024-01-27T12:22:21;103083.99;;;6.08;39.34
39954;BME280;25631;51.516;-0.470;2024-01-27T12:25:08;103077.93;;;6.02;39.55
39954;BME280;25631;51.516;-0.470;2024-01-27T12:27:45;103084.69;;;5.89;39.52
39954;BME280;25631;51.516;-0.470;2024-01-27T12:30:21;103086.55;;;5.75;39.60
39954;BME280;25631;51.516;-0.470;2024-01-27T12:32:58;103084.90;;;6.00;39.58
39954;BME280;25631;51.516;-0.470;2024-01-27T12:35:35;103074.05;;;5.96;39.62
39954;BME280;25631;51.516;-0.470;2024-01-27T12:38:12;103068.47;;;5.98;39.51
39954;BME280;25631;51.516;-0.470;2024-01-27T12:40:48;103054.65;;;6.22;39.59
39954;BME280;25631;51.516;-0.470;2024-01-27T12:43:26;103051.58;;;6.28;39.47
39954;BME280;25631;51.516;-0.470;2024-01-27T12:46:03;103055.56;;;6.24;39.50
39954;BME280;25631;51.516;-0.470;2024-01-27T12:48:39;103052.49;;;6.47;39.40
39954;BME280;25631;51.516;-0.470;2024-01-27T12:51:17;103053.67;;;6.22;39.29
39954;BME280;25631;51.516;-0.470;2024-01-27T12:53:53;103046.41;;;6.32;39.29
39954;BME280;25631;51.516;-0.470;2024-01-27T12:56:30;103046.06;;;6.43;39.03
39954;BME280;25631;51.516;-0.470;2024-01-27T12:59:07;103044.58;;;6.37;38.98
39954;BME280;25631;51.516;-0.470;2024-01-27T13:01:43;103040.58;;;6.49;38.66
39954;BME280;25631;51.516;-0.470;2024-01-27T13:04:19;103039.06;;;6.25;38.97
39954;BME280;25631;51.516;-0.470;2024-01-27T13:06:56;103030.69;;;6.50;38.77
39954;BME280;25631;51.516;-0.470;2024-01-27T13:09:32;103025.51;;;6.66;38.78
39954;BME280;25631;51.516;-0.470;2024-01-27T13:12:09;103018.60;;;6.55;38.76
39954;BME280;25631;51.516;-0.470;2024-01-27T13:14:46;103016.09;;;6.65;38.59
39954;BME280;25631;51.516;-0.470;2024-01-27T13:17:22;103020.25;;;6.99;38.79
39954;BME280;25631;51.516;-0.470;2024-01-27T13:19:58;103024.73;;;6.81;38.71
39954;BME280;25631;51.516;-0.470;2024-01-27T13:22:35;103021.83;;;6.95;38.43
39954;BME280;25631;51.516;-0.470;2024-01-27T13:25:11;103018.56;;;6.93;38.27
39954;BME280;25631;51.516;-0.470;2024-01-27T13:27:48;103020.28;;;6.58;38.44
39954;BME280;25631;51.516;-0.470;2024-01-27T13:30:25;103019.01;;;6.30;38.06
39954;BME280;25631;51.516;-0.470;2024-01-27T13:33:02;103010.91;;;6.64;37.89
39954;BME280;25631;51.516;-0.470;2024-01-27T13:35:38;103002.98;;;6.44;38.06
39954;BME280;25631;51.516;-0.470;2024-01-27T13:38:15;102992.39;;;6.78;38.00
39954;BME280;25631;51.516;-0.470;2024-01-27T13:40:51;103002.22;;;6.96;38.07